createdAt,value
2023-05-03T00:00:21.206Z,101054.00
2023-05-03T00:02:48.239Z,101071.00
2023-05-03T00:05:15.887Z,101060.00
2023-05-03T00:07:44.745Z,101060.00
2023-05-03T00:10:16.350Z,101054.00
2023-05-03T00:12:44.345Z,101048.00
2023-05-03T00:15:11.746Z,101049.00
2023-05-03T00:17:38.788Z,101066.00
2023-05-03T00:20:07.171Z,101047.00
2023-05-03T00:22:34.585Z,101040.00
2023-05-03T00:25:01.722Z,101058.00
2023-05-03T00:27:29.073Z,101026.00
2023-05-03T00:29:56.298Z,101056.00
2023-05-03T00:32:23.370Z,101056.00
2023-05-03T00:34:55.013Z,101048.00
2023-05-03T00:37:22.729Z,101055.00
2023-05-03T00:39:50.010Z,101058.00
2023-05-03T00:42:16.886Z,101050.00
2023-05-03T00:44:43.896Z,101053.00
2023-05-03T00:47:11.358Z,101036.00
2023-05-03T00:49:38.889Z,101050.00
2023-05-03T00:52:06.693Z,101062.00
2023-05-03T00:54:35.329Z,101050.00
2023-05-03T00:57:04.633Z,101063.00
2023-05-03T00:59:34.456Z,101063.00
2023-05-03T01:02:01.993Z,101052.00
2023-05-03T01:04:30.051Z,101072.00
2023-05-03T01:07:15.410Z,101060.00
2023-05-03T01:10:01.474Z,101055.00
2023-05-03T01:13:01.599Z,101056.00
2023-05-03T01:15:57.236Z,101060.00
2023-05-03T01:18:33.562Z,101051.00
2023-05-03T01:21:03.130Z,101047.00
2023-05-03T01:23:46.291Z,101053.00
2023-05-03T01:26:27.789Z,101053.00
2023-05-03T01:28:55.806Z,101053.00
2023-05-03T01:31:50.960Z,101052.00
2023-05-03T01:34:34.154Z,101049.00
2023-05-03T01:37:03.715Z,101050.00
2023-05-03T01:39:48.526Z,101053.00
2023-05-03T01:42:16.358Z,101025.00
2023-05-03T01:44:45.255Z,101061.00
2023-05-03T01:47:15.056Z,101014.00
2023-05-03T01:49:41.947Z,101040.00
2023-05-03T01:52:09.089Z,101048.00
2023-05-03T01:54:36.048Z,101045.00
2023-05-03T01:57:03.054Z,101051.00
2023-05-03T01:59:29.885Z,101044.00
2023-05-03T02:01:56.868Z,101039.00
2023-05-03T02:04:23.767Z,101042.00
2023-05-03T02:06:50.903Z,101039.00
2023-05-03T02:09:18.711Z,101047.00
2023-05-03T02:11:45.588Z,101043.00
2023-05-03T02:14:12.619Z,101037.00
2023-05-03T02:16:40.166Z,101040.00
2023-05-03T02:19:08.021Z,101039.00
2023-05-03T02:21:36.311Z,101038.00
2023-05-03T02:24:03.782Z,101031.00
2023-05-03T02:26:30.779Z,101036.00
2023-05-03T02:28:58.144Z,101037.00
2023-05-03T02:31:25.363Z,101031.00
2023-05-03T02:33:52.283Z,101032.00
2023-05-03T02:36:19.165Z,101030.00
2023-05-03T02:38:46.027Z,101032.00
2023-05-03T02:41:12.830Z,101039.00
2023-05-03T02:43:39.690Z,101037.00
2023-05-03T02:46:06.624Z,101039.00
2023-05-03T02:48:33.472Z,101038.00
2023-05-03T02:51:00.396Z,101041.00
2023-05-03T02:53:27.240Z,101041.00
2023-05-03T02:55:54.047Z,101053.00
2023-05-03T02:58:20.946Z,101053.00
2023-05-03T03:00:47.776Z,101048.00
2023-05-03T03:03:14.692Z,101051.00
2023-05-03T03:05:41.728Z,101053.00
2023-05-03T03:08:08.538Z,101056.00
2023-05-03T03:10:35.434Z,101047.00
2023-05-03T03:13:02.378Z,101064.00
2023-05-03T03:15:30.349Z,101055.00
2023-05-03T03:17:58.262Z,101058.00
2023-05-03T03:20:25.265Z,101054.00
2023-05-03T03:22:52.159Z,101058.00
2023-05-03T03:25:20.185Z,101058.00
2023-05-03T03:27:47.037Z,101066.00
2023-05-03T03:30:14.332Z,101069.00
2023-05-03T03:32:41.322Z,101063.00
2023-05-03T03:35:10.640Z,101053.00
2023-05-03T03:37:39.140Z,101074.00
2023-05-03T03:40:08.106Z,101071.00
2023-05-03T03:42:35.058Z,101073.00
2023-05-03T03:45:01.891Z,101077.00
2023-05-03T03:47:28.756Z,101082.00
2023-05-03T03:49:55.681Z,101086.00
2023-05-03T03:52:23.077Z,101082.00
2023-05-03T03:54:49.894Z,101085.00
2023-05-03T03:57:16.733Z,101090.00
2023-05-03T03:59:43.551Z,101092.00
2023-05-03T04:02:10.808Z,101094.00
2023-05-03T04:04:38.022Z,101094.00
2023-05-03T04:07:05.028Z,101101.00
2023-05-03T04:09:31.891Z,101092.00
2023-05-03T04:11:58.767Z,101103.00
2023-05-03T04:14:25.620Z,101103.00
2023-05-03T04:16:52.539Z,101109.00
2023-05-03T04:19:19.441Z,101119.00
2023-05-03T04:21:46.260Z,101123.00
2023-05-03T04:24:17.522Z,101122.00
2023-05-03T04:26:44.990Z,101110.00
2023-05-03T04:29:12.507Z,101126.00
2023-05-03T04:31:39.831Z,101133.00
2023-05-03T04:34:07.653Z,101129.00
2023-05-03T04:36:34.584Z,101130.00
2023-05-03T04:39:01.443Z,101135.00
2023-05-03T04:41:28.334Z,101139.00
2023-05-03T04:43:55.409Z,101137.00
2023-05-03T04:46:22.289Z,101135.00
2023-05-03T04:48:49.169Z,101142.00
2023-05-03T04:51:16.016Z,101146.00
2023-05-03T04:53:42.850Z,101146.00
2023-05-03T04:56:09.694Z,101157.00
2023-05-03T04:58:37.050Z,101152.00
2023-05-03T05:01:03.935Z,101153.00
2023-05-03T05:03:31.616Z,101162.00
2023-05-03T05:05:58.898Z,101164.00
2023-05-03T05:08:25.935Z,101167.00
2023-05-03T05:10:52.831Z,101173.00
2023-05-03T05:13:19.819Z,101184.00
2023-05-03T05:15:46.730Z,101183.00
2023-05-03T05:18:13.581Z,101186.00
2023-05-03T05:20:40.493Z,101191.00
2023-05-03T05:23:07.368Z,101190.00
2023-05-03T05:25:34.222Z,101203.00
2023-05-03T05:28:01.090Z,101205.00
2023-05-03T05:30:27.987Z,101203.00
2023-05-03T05:32:54.951Z,101203.00
2023-05-03T05:35:21.868Z,101201.00
2023-05-03T05:37:48.861Z,101211.00
2023-05-03T05:40:15.841Z,101205.00
2023-05-03T05:42:42.756Z,101206.00
2023-05-03T05:45:12.511Z,101218.00
2023-05-03T05:47:39.535Z,101210.00
2023-05-03T05:50:16.819Z,101222.00
2023-05-03T05:52:44.928Z,101226.00
2023-05-03T05:55:14.607Z,101224.00
2023-05-03T05:57:41.503Z,101231.00
2023-05-03T06:00:14.424Z,101225.00
2023-05-03T06:02:42.243Z,101240.00
2023-05-03T06:05:10.788Z,101234.00
2023-05-03T06:07:37.912Z,101228.00
2023-05-03T06:10:05.692Z,101241.00
2023-05-03T06:12:32.812Z,101236.00
2023-05-03T06:15:02.824Z,101228.00
2023-05-03T06:17:30.505Z,101237.00
2023-05-03T06:19:58.394Z,101208.00
2023-05-03T06:22:26.334Z,101233.00
2023-05-03T06:24:53.183Z,101231.00
2023-05-03T06:27:20.149Z,101234.00
2023-05-03T06:29:48.034Z,101236.00
2023-05-03T06:32:14.926Z,101233.00
2023-05-03T06:34:41.788Z,101230.00
2023-05-03T06:37:08.612Z,101243.00
2023-05-03T06:39:35.541Z,101244.00
2023-05-03T06:42:02.671Z,101240.00
2023-05-03T06:44:29.511Z,101239.00
2023-05-03T06:46:56.476Z,101229.00
2023-05-03T06:49:23.478Z,101236.00
2023-05-03T06:51:50.377Z,101243.00
2023-05-03T06:54:17.309Z,101225.00
2023-05-03T06:56:44.115Z,101236.00
2023-05-03T06:59:10.985Z,101248.00
2023-05-03T07:01:37.838Z,101234.00
2023-05-03T07:04:05.081Z,101236.00
2023-05-03T07:06:40.742Z,101246.00
2023-05-03T07:09:11.373Z,101243.00
2023-05-03T07:11:40.363Z,101245.00
2023-05-03T07:14:07.287Z,101243.00
2023-05-03T07:16:34.260Z,101247.00
2023-05-03T07:19:01.484Z,101252.00
2023-05-03T07:21:29.454Z,101250.00
2023-05-03T07:23:56.307Z,101251.00
2023-05-03T07:26:23.258Z,101241.00
2023-05-03T07:28:50.298Z,101244.00
2023-05-03T07:31:17.417Z,101249.00
2023-05-03T07:33:44.477Z,101244.00
2023-05-03T07:36:12.067Z,101256.00
2023-05-03T07:38:39.110Z,101256.00
2023-05-03T07:41:06.790Z,101251.00
2023-05-03T07:43:33.828Z,101260.00
2023-05-03T07:46:00.730Z,101254.00
2023-05-03T07:48:27.591Z,101258.00
2023-05-03T07:50:54.566Z,101254.00
2023-05-03T07:53:21.511Z,101265.00
2023-05-03T07:55:48.343Z,101257.00
2023-05-03T07:58:15.359Z,101247.00
2023-05-03T08:00:42.716Z,101250.00
2023-05-03T08:03:09.755Z,101253.00
2023-05-03T08:05:36.956Z,101255.00
2023-05-03T08:08:05.495Z,101249.00
2023-05-03T08:10:36.331Z,101254.00
2023-05-03T08:13:06.061Z,101240.00
2023-05-03T08:15:33.865Z,101229.00
2023-05-03T08:18:01.216Z,101244.00
2023-05-03T08:20:28.323Z,101258.00
2023-05-03T08:22:58.200Z,101256.00
2023-05-03T08:25:26.122Z,101256.00
2023-05-03T08:27:53.430Z,101256.00
2023-05-03T08:30:22.086Z,101258.00
2023-05-03T08:32:49.151Z,101266.00
2023-05-03T08:35:16.115Z,101259.00
2023-05-03T08:37:44.099Z,101262.00
2023-05-03T08:40:13.957Z,101264.00
2023-05-03T08:42:47.089Z,101264.00
2023-05-03T08:45:16.376Z,101260.00
2023-05-03T08:47:45.463Z,101273.00
2023-05-03T08:50:15.185Z,101250.00
2023-05-03T08:52:43.491Z,101271.00
2023-05-03T08:55:11.633Z,101271.00
2023-05-03T08:57:39.389Z,101275.00
2023-05-03T09:00:10.642Z,101262.00
2023-05-03T09:02:41.388Z,101248.00
2023-05-03T09:05:17.321Z,101269.00
2023-05-03T09:08:05.714Z,101266.00
2023-05-03T09:10:36.953Z,101280.00
2023-05-03T09:13:04.154Z,101278.00
2023-05-03T09:15:31.482Z,101279.00
2023-05-03T09:18:16.523Z,101284.00
2023-05-03T09:20:51.823Z,101297.00
2023-05-03T09:23:26.271Z,101289.00
2023-05-03T09:25:56.039Z,101311.00
2023-05-03T09:28:23.555Z,101293.00
2023-05-03T09:31:04.540Z,101285.00
2023-05-03T09:33:31.456Z,101274.00
2023-05-03T09:36:02.397Z,101279.00
2023-05-03T09:38:36.666Z,101296.00
2023-05-03T09:41:06.196Z,101298.00
2023-05-03T09:43:35.509Z,101288.00
2023-05-03T09:46:13.461Z,101289.00
2023-05-03T09:48:41.979Z,101284.00
2023-05-03T09:51:11.527Z,101289.00
2023-05-03T09:53:40.266Z,101301.00
2023-05-03T09:56:12.425Z,101314.00
2023-05-03T09:58:42.894Z,101297.00
2023-05-03T10:01:10.693Z,101297.00
2023-05-03T10:03:46.757Z,101290.00
2023-05-03T10:06:24.707Z,101286.00
2023-05-03T10:09:23.317Z,101283.00
2023-05-03T10:11:59.146Z,101289.00
2023-05-03T10:14:26.536Z,101288.00
2023-05-03T10:17:02.768Z,101292.00
2023-05-03T10:19:52.865Z,101288.00
2023-05-03T10:22:19.784Z,101289.00
2023-05-03T10:25:02.437Z,101298.00
2023-05-03T10:27:45.539Z,101308.00
2023-05-03T10:30:31.086Z,101292.00
2023-05-03T10:32:58.812Z,101289.00
2023-05-03T10:35:29.770Z,101303.00
2023-05-03T10:37:57.641Z,101286.00
2023-05-03T10:40:41.372Z,101302.00
2023-05-03T10:43:33.918Z,101287.00
2023-05-03T10:46:30.651Z,101290.00
2023-05-03T10:49:19.406Z,101302.00
2023-05-03T10:51:46.821Z,101315.00
2023-05-03T10:54:13.969Z,101308.00
2023-05-03T10:56:52.506Z,101304.00
2023-05-03T10:59:20.051Z,101309.00
2023-05-03T11:01:53.795Z,101297.00
2023-05-03T11:04:38.256Z,101298.00
2023-05-03T11:07:05.153Z,101296.00
2023-05-03T11:09:34.489Z,101297.00
2023-05-03T11:12:07.213Z,101292.00
2023-05-03T11:14:34.301Z,101280.00
2023-05-03T11:17:01.998Z,101290.00
2023-05-03T11:19:29.473Z,101310.00
2023-05-03T11:21:57.407Z,101305.00
2023-05-03T11:24:24.425Z,101312.00
2023-05-03T11:26:51.407Z,101321.00
2023-05-03T11:29:18.751Z,101330.00
2023-05-03T11:31:45.937Z,101339.00
2023-05-03T11:34:15.665Z,101324.00
2023-05-03T11:36:42.766Z,101309.00
2023-05-03T11:39:11.820Z,101328.00
2023-05-03T11:41:38.995Z,101327.00
2023-05-03T11:44:15.972Z,101327.00
2023-05-03T11:46:45.946Z,101324.00
2023-05-03T11:49:18.928Z,101320.00
2023-05-03T11:51:49.197Z,101314.00
2023-05-03T11:54:24.883Z,101320.00
2023-05-03T11:56:59.588Z,101317.00
2023-05-03T11:59:39.446Z,101339.00
2023-05-03T12:02:13.111Z,101333.00
2023-05-03T12:04:43.575Z,101339.00
2023-05-03T12:07:14.669Z,101310.00
2023-05-03T12:09:51.654Z,101328.00
2023-05-03T12:12:31.734Z,101330.00
2023-05-03T12:15:03.638Z,101340.00
2023-05-03T12:17:43.995Z,101326.00
2023-05-03T12:22:58.815Z,101335.00
2023-05-03T12:25:28.234Z,101333.00
2023-05-03T12:28:18.772Z,101340.00
2023-05-03T12:30:47.307Z,101334.00
2023-05-03T12:33:16.559Z,101346.00
2023-05-03T12:35:47.517Z,101323.00
2023-05-03T12:38:17.374Z,101340.00
2023-05-03T12:40:47.008Z,101341.00
2023-05-03T12:43:14.388Z,101333.00
2023-05-03T12:45:44.721Z,101329.00
2023-05-03T12:48:14.133Z,101338.00
2023-05-03T12:50:45.163Z,101335.00
2023-05-03T12:53:16.643Z,101338.00
2023-05-03T12:55:44.951Z,101328.00
2023-05-03T12:58:36.759Z,101337.00
2023-05-03T13:03:33.804Z,101347.00
2023-05-03T13:06:12.667Z,101347.00
2023-05-03T13:08:48.842Z,101343.00
2023-05-03T13:11:19.457Z,101346.00
2023-05-03T13:13:46.675Z,101342.00
2023-05-03T13:16:14.522Z,101346.00
2023-05-03T13:18:42.858Z,101339.00
2023-05-03T13:21:12.109Z,101338.00
2023-05-03T13:23:39.021Z,101336.00
2023-05-03T13:26:06.997Z,101336.00
2023-05-03T13:28:33.967Z,101340.00
2023-05-03T13:31:00.794Z,101336.00
2023-05-03T13:33:28.763Z,101336.00
2023-05-03T13:35:55.738Z,101332.00
2023-05-03T13:38:22.697Z,101321.00
2023-05-03T13:40:49.517Z,101325.00
2023-05-03T13:43:16.361Z,101316.00
2023-05-03T13:45:43.364Z,101319.00
2023-05-03T13:48:19.199Z,101316.00
2023-05-03T13:50:46.525Z,101325.00
2023-05-03T13:53:13.500Z,101315.00
2023-05-03T13:55:40.328Z,101328.00
2023-05-03T13:58:07.237Z,101320.00
2023-05-03T14:00:34.138Z,101324.00
2023-05-03T14:03:01.381Z,101323.00
2023-05-03T14:05:28.340Z,101327.00
2023-05-03T14:07:55.479Z,101314.00
2023-05-03T14:10:22.709Z,101339.00
2023-05-03T14:12:50.080Z,101335.00
2023-05-03T14:15:18.636Z,101342.00
2023-05-03T14:17:48.457Z,101350.00
2023-05-03T14:20:17.314Z,101345.00
2023-05-03T14:22:45.634Z,101346.00
2023-05-03T14:25:13.009Z,101348.00
2023-05-03T14:27:40.219Z,101345.00
2023-05-03T14:30:09.900Z,101349.00
2023-05-03T14:32:36.809Z,101350.00
2023-05-03T14:35:03.958Z,101356.00
2023-05-03T14:37:31.239Z,101350.00
2023-05-03T14:39:58.128Z,101362.00
2023-05-03T14:42:24.984Z,101368.00
2023-05-03T14:44:51.887Z,101352.00
2023-05-03T14:47:18.984Z,101335.00
2023-05-03T14:49:45.855Z,101370.00
2023-05-03T14:52:13.161Z,101366.00
2023-05-03T14:54:40.105Z,101376.00
2023-05-03T14:57:07.155Z,101368.00
2023-05-03T14:59:34.390Z,101367.00
2023-05-03T15:02:02.176Z,101368.00
2023-05-03T15:04:29.579Z,101365.00
2023-05-03T15:07:03.952Z,101363.00
2023-05-03T15:09:31.779Z,101366.00
2023-05-03T15:11:59.233Z,101328.00
2023-05-03T15:14:26.324Z,101371.00
2023-05-03T15:16:53.476Z,101369.00
2023-05-03T15:19:21.174Z,101377.00
2023-05-03T15:21:51.969Z,101382.00
2023-05-03T15:24:18.953Z,101373.00
2023-05-03T15:26:47.025Z,101375.00
2023-05-03T15:29:15.636Z,101379.00
2023-05-03T15:31:43.325Z,101372.00
2023-05-03T15:34:13.315Z,101375.00
2023-05-03T15:36:40.807Z,101379.00
2023-05-03T15:39:09.152Z,101367.00
2023-05-03T15:41:36.101Z,101379.00
2023-05-03T15:44:05.220Z,101379.00
2023-05-03T15:46:34.546Z,101379.00
2023-05-03T15:49:01.790Z,101376.00
2023-05-03T15:51:29.293Z,101376.00
2023-05-03T15:53:56.118Z,101373.00
2023-05-03T15:56:23.091Z,101372.00
2023-05-03T15:58:50.169Z,101372.00
2023-05-03T16:01:18.634Z,101373.00
2023-05-03T16:03:46.193Z,101380.00
2023-05-03T16:06:13.334Z,101378.00
2023-05-03T16:08:40.266Z,101375.00
2023-05-03T16:11:08.028Z,101377.00
2023-05-03T16:13:35.212Z,101385.00
2023-05-03T16:16:03.133Z,101346.00
2023-05-03T16:18:30.113Z,101380.00
2023-05-03T16:20:57.029Z,101381.00
2023-05-03T16:23:24.024Z,101384.00
2023-05-03T16:25:51.021Z,101379.00
2023-05-03T16:28:17.886Z,101376.00
2023-05-03T16:30:45.920Z,101378.00
2023-05-03T16:33:13.207Z,101382.00
2023-05-03T16:35:40.219Z,101384.00
2023-05-03T16:38:07.330Z,101385.00
2023-05-03T16:40:34.184Z,101382.00
2023-05-03T16:43:01.592Z,101386.00
2023-05-03T16:45:28.577Z,101382.00
2023-05-03T16:47:55.783Z,101375.00
2023-05-03T16:50:22.844Z,101377.00
2023-05-03T16:52:49.727Z,101385.00
2023-05-03T16:55:24.737Z,101384.00
2023-05-03T16:57:51.655Z,101380.00
2023-05-03T17:00:20.895Z,101383.00
2023-05-03T17:02:47.872Z,101376.00
2023-05-03T17:05:15.049Z,101376.00
2023-05-03T17:07:42.366Z,101380.00
2023-05-03T17:10:09.887Z,101377.00
2023-05-03T17:12:36.898Z,101376.00
2023-05-03T17:15:04.600Z,101355.00
2023-05-03T17:17:32.688Z,101375.00
2023-05-03T17:19:59.755Z,101377.00
2023-05-03T17:22:26.636Z,101387.00
2023-05-03T17:24:55.319Z,101382.00
2023-05-03T17:27:24.188Z,101395.00
2023-05-03T17:29:54.105Z,101376.00
2023-05-03T17:32:21.287Z,101392.00
2023-05-03T17:34:48.112Z,101380.00
2023-05-03T17:37:14.942Z,101392.00
2023-05-03T17:39:41.963Z,101241.00
2023-05-03T17:42:09.339Z,101387.00
2023-05-03T17:44:36.196Z,101391.00
2023-05-03T17:47:03.634Z,101394.00
2023-05-03T17:49:33.740Z,101391.00
2023-05-03T17:52:00.717Z,101392.00
2023-05-03T17:54:30.881Z,101399.00
2023-05-03T17:56:57.756Z,101398.00
2023-05-03T17:59:24.572Z,101401.00
2023-05-03T18:01:51.474Z,101413.00
2023-05-03T18:04:18.315Z,101409.00
2023-05-03T18:06:45.639Z,101412.00
2023-05-03T18:09:13.270Z,101405.00
2023-05-03T18:11:41.294Z,101413.00
2023-05-03T18:14:10.486Z,101412.00
2023-05-03T18:16:37.695Z,101417.00
2023-05-03T18:19:04.642Z,101415.00
2023-05-03T18:21:31.510Z,101422.00
2023-05-03T18:23:58.492Z,101421.00
2023-05-03T18:26:25.534Z,101427.00
2023-05-03T18:28:53.643Z,101428.00
2023-05-03T18:31:21.500Z,101428.00
2023-05-03T18:33:48.961Z,101431.00
2023-05-03T18:36:17.474Z,101427.00
2023-05-03T18:38:46.730Z,101429.00
2023-05-03T18:41:14.892Z,101431.00
2023-05-03T18:43:47.130Z,101433.00
2023-05-03T18:46:19.319Z,101425.00
2023-05-03T18:48:47.792Z,101433.00
2023-05-03T18:51:15.028Z,101436.00
2023-05-03T18:53:43.456Z,101443.00
2023-05-03T18:56:11.601Z,101446.00
2023-05-03T18:58:38.624Z,101449.00
2023-05-03T19:01:05.960Z,101457.00
2023-05-03T19:03:33.403Z,101456.00
2023-05-03T19:06:07.315Z,101458.00
2023-05-03T19:08:35.443Z,101455.00
2023-05-03T19:11:10.922Z,101459.00
2023-05-03T19:13:37.973Z,101450.00
2023-05-03T19:16:05.532Z,101457.00
2023-05-03T19:18:32.589Z,101458.00
2023-05-03T19:21:00.198Z,101452.00
2023-05-03T19:23:27.486Z,101458.00
2023-05-03T19:25:54.376Z,101461.00
2023-05-03T19:28:21.366Z,101455.00
2023-05-03T19:30:51.681Z,101454.00
2023-05-03T19:33:20.346Z,101452.00
2023-05-03T19:35:47.758Z,101444.00
2023-05-03T19:38:15.041Z,101454.00
2023-05-03T19:40:54.594Z,101447.00
2023-05-03T19:43:21.505Z,101458.00
2023-05-03T19:45:48.456Z,101460.00
2023-05-03T19:48:17.361Z,101455.00
2023-05-03T19:50:45.015Z,101459.00
2023-05-03T19:53:12.690Z,101452.00
2023-05-03T19:55:39.820Z,101455.00
2023-05-03T19:58:07.409Z,101451.00
2023-05-03T20:00:34.282Z,101459.00
2023-05-03T20:03:01.162Z,101461.00
2023-05-03T20:05:28.204Z,101465.00
2023-05-03T20:07:55.198Z,101449.00
2023-05-03T20:10:22.468Z,101458.00
2023-05-03T20:12:49.318Z,101459.00
2023-05-03T20:15:16.321Z,101451.00
2023-05-03T20:17:43.236Z,101450.00
2023-05-03T20:20:11.260Z,101448.00
2023-05-03T20:22:38.235Z,101455.00
2023-05-03T20:25:06.241Z,101448.00
2023-05-03T20:27:33.143Z,101450.00
2023-05-03T20:30:00.181Z,101450.00
2023-05-03T20:32:27.162Z,101455.00
2023-05-03T20:34:54.071Z,101453.00
2023-05-03T20:37:20.929Z,101451.00
2023-05-03T20:39:47.835Z,101456.00
2023-05-03T20:42:14.670Z,101460.00
2023-05-03T20:44:41.746Z,101451.00
2023-05-03T20:47:09.190Z,101457.00
2023-05-03T20:49:37.049Z,101450.00
2023-05-03T20:52:04.212Z,101453.00
2023-05-03T20:54:31.077Z,101450.00
2023-05-03T20:56:58.273Z,101440.00
2023-05-03T20:59:27.854Z,101450.00
2023-05-03T21:01:55.842Z,101451.00
2023-05-03T21:04:25.950Z,101444.00
2023-05-03T21:06:52.943Z,101444.00
2023-05-03T21:09:20.016Z,101441.00
2023-05-03T21:11:46.865Z,101448.00
2023-05-03T21:14:14.461Z,101451.00
2023-05-03T21:16:41.419Z,101445.00
2023-05-03T21:19:08.411Z,101449.00
2023-05-03T21:21:35.308Z,101451.00
2023-05-03T21:24:02.356Z,101453.00
2023-05-03T21:26:32.755Z,101446.00
2023-05-03T21:29:00.332Z,101446.00
2023-05-03T21:31:27.451Z,101445.00
2023-05-03T21:33:54.347Z,101438.00
2023-05-03T21:36:21.331Z,101449.00
2023-05-03T21:38:50.938Z,101447.00
2023-05-03T21:41:19.468Z,101447.00
2023-05-03T21:43:46.730Z,101435.00
2023-05-03T21:46:14.002Z,101439.00
2023-05-03T21:48:41.066Z,101439.00
2023-05-03T21:51:08.804Z,101444.00
2023-05-03T21:53:35.796Z,101438.00
2023-05-03T21:56:02.713Z,101437.00
2023-05-03T21:58:29.744Z,101437.00
2023-05-03T22:00:56.601Z,101439.00
2023-05-03T22:03:23.541Z,101438.00
2023-05-03T22:05:51.463Z,101429.00
2023-05-03T22:08:18.686Z,101442.00
2023-05-03T22:10:46.386Z,101440.00
2023-05-03T22:13:13.455Z,101429.00
2023-05-03T22:15:40.372Z,101428.00
2023-05-03T22:18:07.525Z,101428.00
2023-05-03T22:20:34.580Z,101427.00
2023-05-03T22:23:01.463Z,101424.00
2023-05-03T22:25:32.092Z,101431.00
2023-05-03T22:27:59.668Z,101424.00
2023-05-03T22:30:27.630Z,101423.00
2023-05-03T22:32:54.592Z,101423.00
2023-05-03T22:35:21.717Z,101422.00
2023-05-03T22:37:48.664Z,101410.00
2023-05-03T22:40:15.698Z,101416.00
2023-05-03T22:42:42.659Z,101411.00
2023-05-03T22:45:10.350Z,101407.00
2023-05-03T22:47:37.417Z,101409.00
2023-05-03T22:50:06.147Z,101412.00
2023-05-03T22:52:33.265Z,101405.00
2023-05-03T22:55:01.354Z,101412.00
2023-05-03T22:57:28.437Z,101410.00
2023-05-03T22:59:55.418Z,101415.00
2023-05-03T23:02:22.529Z,101419.00
2023-05-03T23:04:49.411Z,101418.00
2023-05-03T23:07:16.311Z,101406.00
2023-05-03T23:09:43.162Z,101414.00
2023-05-03T23:12:09.999Z,101414.00
2023-05-03T23:14:38.973Z,101408.00
2023-05-03T23:17:05.853Z,101411.00
2023-05-03T23:19:33.813Z,101408.00
2023-05-03T23:22:00.642Z,101411.00
2023-05-03T23:24:27.460Z,101402.00
2023-05-03T23:26:57.340Z,101407.00
2023-05-03T23:29:24.599Z,101395.00
2023-05-03T23:31:51.978Z,101397.00
2023-05-03T23:34:20.192Z,101395.00
2023-05-03T23:36:47.037Z,101391.00
2023-05-03T23:39:13.934Z,101390.00
2023-05-03T23:41:41.022Z,101404.00
2023-05-03T23:44:08.365Z,101389.00
2023-05-03T23:46:35.714Z,101386.00
2023-05-03T23:49:02.751Z,101382.00
2023-05-03T23:51:29.588Z,101379.00
2023-05-03T23:53:56.629Z,101379.00
2023-05-03T23:56:23.813Z,101372.00
2023-05-03T23:58:50.644Z,101367.00
